sensor_id;sensor_type;location;lat;lon;timestamp;temperature;humidity
2663;DHT22;49701;48.072;7.800;2022-07-06T00:01:48;18.90;99.90
2663;DHT22;49701;48.072;7.800;2022-07-06T00:04:13;18.80;99.90
2663;DHT22;49701;48.072;7.800;2022-07-06T00:06:39;18.80;99.90
2663;DHT22;49701;48.072;7.800;2022-07-06T00:09:05;18.80;99.90
2663;DHT22;49701;48.072;7.800;2022-07-06T00:11:31;18.70;99.90
2663;DHT22;49701;48.072;7.800;2022-07-06T00:13:57;18.60;99.90
2663;DHT22;49701;48.072;7.800;2022-07-06T00:16:22;18.60;99.90
2663;DHT22;49701;48.072;7.800;2022-07-06T00:18:48;18.60;99.90
2663;DHT22;49701;48.072;7.800;2022-07-06T00:21:14;18.60;99.90
2663;DHT22;49701;48.072;7.800;2022-07-06T00:23:40;18.50;99.90
2663;DHT22;49701;48.072;7.800;2022-07-06T00:26:06;18.40;99.90
2663;DHT22;49701;48.072;7.800;2022-07-06T00:28:31;18.40;99.90
2663;DHT22;49701;48.072;7.800;2022-07-06T00:30:57;18.30;99.90
2663;DHT22;49701;48.072;7.800;2022-07-06T00:33:22;18.40;99.90
2663;DHT22;49701;48.072;7.800;2022-07-06T00:35:48;18.30;99.90
2663;DHT22;49701;48.072;7.800;2022-07-06T00:38:14;18.30;99.90
2663;DHT22;49701;48.072;7.800;2022-07-06T00:40:40;18.40;99.90
2663;DHT22;49701;48.072;7.800;2022-07-06T00:43:06;18.30;99.90
2663;DHT22;49701;48.072;7.800;2022-07-06T00:45:32;18.20;99.90
2663;DHT22;49701;48.072;7.800;2022-07-06T00:47:58;18.00;99.90
2663;DHT22;49701;48.072;7.800;2022-07-06T00:50:24;17.90;99.90
2663;DHT22;49701;48.072;7.800;2022-07-06T00:52:56;17.90;99.90
2663;DHT22;49701;48.072;7.800;2022-07-06T00:55:27;17.80;99.90
2663;DHT22;49701;48.072;7.800;2022-07-06T00:57:53;17.80;99.90
2663;DHT22;49701;48.072;7.800;2022-07-06T01:00:21;17.80;99.90
2663;DHT22;49701;48.072;7.800;2022-07-06T01:02:47;17.70;99.90
2663;DHT22;49701;48.072;7.800;2022-07-06T01:05:14;17.60;99.90
2663;DHT22;49701;48.072;7.800;2022-07-06T01:07:42;17.60;99.90
2663;DHT22;49701;48.072;7.800;2022-07-06T01:10:10;17.70;99.90
2663;DHT22;49701;48.072;7.800;2022-07-06T01:12:36;17.70;99.90
2663;DHT22;49701;48.072;7.800;2022-07-06T01:15:04;17.70;99.90
2663;DHT22;49701;48.072;7.800;2022-07-06T01:17:31;17.70;99.90
2663;DHT22;49701;48.072;7.800;2022-07-06T01:19:57;17.70;99.90
2663;DHT22;49701;48.072;7.800;2022-07-06T01:22:23;17.70;99.90
2663;DHT22;49701;48.072;7.800;2022-07-06T01:24:48;17.60;99.90
2663;DHT22;49701;48.072;7.800;2022-07-06T01:27:14;17.50;99.90
2663;DHT22;49701;48.072;7.800;2022-07-06T01:29:40;17.50;99.90
2663;DHT22;49701;48.072;7.800;2022-07-06T01:32:06;17.40;99.90
2663;DHT22;49701;48.072;7.800;2022-07-06T01:34:31;17.40;99.90
2663;DHT22;49701;48.072;7.800;2022-07-06T01:36:57;17.30;99.90
2663;DHT22;49701;48.072;7.800;2022-07-06T01:39:23;17.30;99.90
2663;DHT22;49701;48.072;7.800;2022-07-06T01:41:48;17.30;99.90
2663;DHT22;49701;48.072;7.800;2022-07-06T01:44:14;17.20;99.90
2663;DHT22;49701;48.072;7.800;2022-07-06T01:46:39;17.20;99.90
2663;DHT22;49701;48.072;7.800;2022-07-06T01:49:05;17.00;99.90
2663;DHT22;49701;48.072;7.800;2022-07-06T01:51:31;17.00;99.90
2663;DHT22;49701;48.072;7.800;2022-07-06T01:53:57;17.00;99.90
2663;DHT22;49701;48.072;7.800;2022-07-06T01:56:23;16.90;99.90
2663;DHT22;49701;48.072;7.800;2022-07-06T01:58:49;16.80;99.90
2663;DHT22;49701;48.072;7.800;2022-07-06T02:01:17;16.60;99.90
2663;DHT22;49701;48.072;7.800;2022-07-06T02:03:43;16.50;99.90
2663;DHT22;49701;48.072;7.800;2022-07-06T02:06:09;16.50;99.90
2663;DHT22;49701;48.072;7.800;2022-07-06T02:08:36;16.60;99.90
2663;DHT22;49701;48.072;7.800;2022-07-06T02:11:06;16.60;99.90
2663;DHT22;49701;48.072;7.800;2022-07-06T02:13:32;16.60;99.90
2663;DHT22;49701;48.072;7.800;2022-07-06T02:15:58;16.70;99.90
2663;DHT22;49701;48.072;7.800;2022-07-06T02:18:24;16.70;99.90
2663;DHT22;49701;48.072;7.800;2022-07-06T02:20:49;16.60;99.90
2663;DHT22;49701;48.072;7.800;2022-07-06T02:23:15;16.70;99.90
2663;DHT22;49701;48.072;7.800;2022-07-06T02:25:40;16.70;99.90
2663;DHT22;49701;48.072;7.800;2022-07-06T02:28:06;16.70;99.90
2663;DHT22;49701;48.072;7.800;2022-07-06T02:30:32;16.60;99.90
2663;DHT22;49701;48.072;7.800;2022-07-06T02:32:57;16.60;99.90
2663;DHT22;49701;48.072;7.800;2022-07-06T02:35:23;16.60;99.90
2663;DHT22;49701;48.072;7.800;2022-07-06T02:37:48;16.50;99.90
2663;DHT22;49701;48.072;7.800;2022-07-06T02:40:14;16.50;99.90
2663;DHT22;49701;48.072;7.800;2022-07-06T02:42:39;16.50;99.90
2663;DHT22;49701;48.072;7.800;2022-07-06T02:45:06;16.50;99.90
2663;DHT22;49701;48.072;7.800;2022-07-06T02:47:31;16.50;99.90
2663;DHT22;49701;48.072;7.800;2022-07-06T02:49:57;16.50;99.90
2663;DHT22;49701;48.072;7.800;2022-07-06T02:52:22;16.40;99.90
2663;DHT22;49701;48.072;7.800;2022-07-06T02:54:48;16.40;99.90
2663;DHT22;49701;48.072;7.800;2022-07-06T02:57:15;16.30;99.90
2663;DHT22;49701;48.072;7.800;2022-07-06T02:59:40;16.20;99.90
2663;DHT22;49701;48.072;7.800;2022-07-06T03:02:07;16.20;99.90
2663;DHT22;49701;48.072;7.800;2022-07-06T03:04:33;16.20;99.90
2663;DHT22;49701;48.072;7.800;2022-07-06T03:06:58;16.20;99.90
2663;DHT22;49701;48.072;7.800;2022-07-06T03:09:24;16.20;99.90
2663;DHT22;49701;48.072;7.800;2022-07-06T03:11:50;16.10;99.90
2663;DHT22;49701;48.072;7.800;2022-07-06T03:14:15;16.10;99.90
2663;DHT22;49701;48.072;7.800;2022-07-06T03:16:41;16.10;99.90
2663;DHT22;49701;48.072;7.800;2022-07-06T03:19:07;16.10;99.90
2663;DHT22;49701;48.072;7.800;2022-07-06T03:21:32;16.20;99.90
2663;DHT22;49701;48.072;7.800;2022-07-06T03:23:58;16.20;99.90
2663;DHT22;49701;48.072;7.800;2022-07-06T03:26:24;16.30;99.90
2663;DHT22;49701;48.072;7.800;2022-07-06T03:28:49;16.30;99.90
2663;DHT22;49701;48.072;7.800;2022-07-06T03:31:15;16.30;99.90
2663;DHT22;49701;48.072;7.800;2022-07-06T03:33:41;16.30;99.90
2663;DHT22;49701;48.072;7.800;2022-07-06T03:36:07;16.20;99.90
2663;DHT22;49701;48.072;7.800;2022-07-06T03:38:33;16.20;99.90
2663;DHT22;49701;48.072;7.800;2022-07-06T03:40:59;16.20;99.90
2663;DHT22;49701;48.072;7.800;2022-07-06T03:43:24;16.10;99.90
2663;DHT22;49701;48.072;7.800;2022-07-06T03:45:50;16.10;99.90
2663;DHT22;49701;48.072;7.800;2022-07-06T03:48:15;16.00;99.90
2663;DHT22;49701;48.072;7.800;2022-07-06T03:50:41;16.00;99.90
2663;DHT22;49701;48.072;7.800;2022-07-06T03:53:06;16.00;99.90
2663;DHT22;49701;48.072;7.800;2022-07-06T03:55:32;15.90;99.90
2663;DHT22;49701;48.072;7.800;2022-07-06T03:57:57;15.90;99.90
2663;DHT22;49701;48.072;7.800;2022-07-06T04:00:23;16.00;99.90
2663;DHT22;49701;48.072;7.800;2022-07-06T04:02:49;16.00;99.90
2663;DHT22;49701;48.072;7.800;2022-07-06T04:05:14;16.00;99.90
2663;DHT22;49701;48.072;7.800;2022-07-06T04:07:40;16.10;99.90
2663;DHT22;49701;48.072;7.800;2022-07-06T04:10:07;16.10;99.90
2663;DHT22;49701;48.072;7.800;2022-07-06T04:12:40;16.20;99.90
2663;DHT22;49701;48.072;7.800;2022-07-06T04:15:06;16.30;99.90
2663;DHT22;49701;48.072;7.800;2022-07-06T04:17:31;16.20;99.90
2663;DHT22;49701;48.072;7.800;2022-07-06T04:20:15;16.30;99.90
2663;DHT22;49701;48.072;7.800;2022-07-06T04:22:41;16.40;99.90
2663;DHT22;49701;48.072;7.800;2022-07-06T04:25:07;16.40;99.90
2663;DHT22;49701;48.072;7.800;2022-07-06T04:27:33;16.50;99.90
2663;DHT22;49701;48.072;7.800;2022-07-06T04:29:59;16.50;99.90
2663;DHT22;49701;48.072;7.800;2022-07-06T04:32:24;16.60;99.90
2663;DHT22;49701;48.072;7.800;2022-07-06T04:34:50;16.60;99.90
2663;DHT22;49701;48.072;7.800;2022-07-06T04:37:15;16.60;99.90
2663;DHT22;49701;48.072;7.800;2022-07-06T04:39:41;16.50;99.90
2663;DHT22;49701;48.072;7.800;2022-07-06T04:42:06;16.50;99.90
2663;DHT22;49701;48.072;7.800;2022-07-06T04:44:32;16.40;99.90
2663;DHT22;49701;48.072;7.800;2022-07-06T04:46:57;16.40;99.90
2663;DHT22;49701;48.072;7.800;2022-07-06T04:49:23;16.30;99.90
2663;DHT22;49701;48.072;7.800;2022-07-06T04:51:48;16.30;99.90
2663;DHT22;49701;48.072;7.800;2022-07-06T04:54:14;16.20;99.90
2663;DHT22;49701;48.072;7.800;2022-07-06T04:56:39;16.20;99.90
2663;DHT22;49701;48.072;7.800;2022-07-06T04:59:05;16.20;99.90
2663;DHT22;49701;48.072;7.800;2022-07-06T05:01:31;16.20;99.90
2663;DHT22;49701;48.072;7.800;2022-07-06T05:03:56;16.20;99.90
2663;DHT22;49701;48.072;7.800;2022-07-06T05:06:22;16.30;99.90
2663;DHT22;49701;48.072;7.800;2022-07-06T05:08:47;16.30;99.90
2663;DHT22;49701;48.072;7.800;2022-07-06T05:11:13;16.40;99.90
2663;DHT22;49701;48.072;7.800;2022-07-06T05:13:38;16.50;99.90
2663;DHT22;49701;48.072;7.800;2022-07-06T05:16:04;16.50;99.90
2663;DHT22;49701;48.072;7.800;2022-07-06T05:18:30;16.50;99.90
2663;DHT22;49701;48.072;7.800;2022-07-06T05:20:55;16.60;99.90
2663;DHT22;49701;48.072;7.800;2022-07-06T05:23:21;16.60;99.90
2663;DHT22;49701;48.072;7.800;2022-07-06T05:25:47;16.70;99.90
2663;DHT22;49701;48.072;7.800;2022-07-06T05:28:12;16.80;99.90
2663;DHT22;49701;48.072;7.800;2022-07-06T05:30:38;16.90;99.90
2663;DHT22;49701;48.072;7.800;2022-07-06T05:33:03;17.00;99.90
2663;DHT22;49701;48.072;7.800;2022-07-06T05:35:29;17.10;99.90
2663;DHT22;49701;48.072;7.800;2022-07-06T05:37:59;17.20;99.90
2663;DHT22;49701;48.072;7.800;2022-07-06T05:40:26;17.30;99.90
2663;DHT22;49701;48.072;7.800;2022-07-06T05:42:52;17.40;99.90
2663;DHT22;49701;48.072;7.800;2022-07-06T05:45:17;17.50;99.90
2663;DHT22;49701;48.072;7.800;2022-07-06T05:47:43;17.60;99.90
2663;DHT22;49701;48.072;7.800;2022-07-06T05:50:27;17.70;99.90
2663;DHT22;49701;48.072;7.800;2022-07-06T05:53:01;17.80;99.90
2663;DHT22;49701;48.072;7.800;2022-07-06T05:55:27;17.90;99.90
2663;DHT22;49701;48.072;7.800;2022-07-06T05:57:53;18.10;99.90
2663;DHT22;49701;48.072;7.800;2022-07-06T06:00:20;18.20;99.90
2663;DHT22;49701;48.072;7.800;2022-07-06T06:02:46;18.40;99.90
2663;DHT22;49701;48.072;7.800;2022-07-06T06:05:13;18.50;99.90
2663;DHT22;49701;48.072;7.800;2022-07-06T06:07:39;18.60;99.90
2663;DHT22;49701;48.072;7.800;2022-07-06T06:10:07;18.80;99.90
2663;DHT22;49701;48.072;7.800;2022-07-06T06:12:33;18.90;99.90
2663;DHT22;49701;48.072;7.800;2022-07-06T06:14:59;19.00;99.90
2663;DHT22;49701;48.072;7.800;2022-07-06T06:17:25;19.10;99.90
2663;DHT22;49701;48.072;7.800;2022-07-06T06:19:50;19.20;99.90
2663;DHT22;49701;48.072;7.800;2022-07-06T06:22:16;19.30;99.90
2663;DHT22;49701;48.072;7.800;2022-07-06T06:24:41;19.50;99.90
2663;DHT22;49701;48.072;7.800;2022-07-06T06:27:16;19.60;99.90
2663;DHT22;49701;48.072;7.800;2022-07-06T06:29:42;19.60;99.90
2663;DHT22;49701;48.072;7.800;2022-07-06T06:32:11;19.70;99.90
2663;DHT22;49701;48.072;7.800;2022-07-06T06:34:38;19.80;99.90
2663;DHT22;49701;48.072;7.800;2022-07-06T06:37:04;19.90;99.90
2663;DHT22;49701;48.072;7.800;2022-07-06T06:39:29;20.00;99.90
2663;DHT22;49701;48.072;7.800;2022-07-06T06:41:55;20.20;99.90
2663;DHT22;49701;48.072;7.800;2022-07-06T06:44:20;20.30;99.90
2663;DHT22;49701;48.072;7.800;2022-07-06T06:46:49;20.40;99.90
2663;DHT22;49701;48.072;7.800;2022-07-06T06:49:14;20.40;99.90
2663;DHT22;49701;48.072;7.800;2022-07-06T06:51:40;20.50;99.90
2663;DHT22;49701;48.072;7.800;2022-07-06T06:54:05;20.70;99.90
2663;DHT22;49701;48.072;7.800;2022-07-06T06:56:31;20.70;99.90
2663;DHT22;49701;48.072;7.800;2022-07-06T06:58:56;20.80;99.90
2663;DHT22;49701;48.072;7.800;2022-07-06T07:01:22;20.80;99.90
2663;DHT22;49701;48.072;7.800;2022-07-06T07:03:47;20.90;99.90
2663;DHT22;49701;48.072;7.800;2022-07-06T07:06:13;21.00;99.90
2663;DHT22;49701;48.072;7.800;2022-07-06T07:08:39;21.10;99.90
2663;DHT22;49701;48.072;7.800;2022-07-06T07:11:04;21.30;99.90
2663;DHT22;49701;48.072;7.800;2022-07-06T07:13:30;21.40;99.90
2663;DHT22;49701;48.072;7.800;2022-07-06T07:15:55;21.40;99.90
2663;DHT22;49701;48.072;7.800;2022-07-06T07:18:21;21.60;99.90
2663;DHT22;49701;48.072;7.800;2022-07-06T07:20:46;21.70;99.90
2663;DHT22;49701;48.072;7.800;2022-07-06T07:23:12;21.80;99.90
2663;DHT22;49701;48.072;7.800;2022-07-06T07:25:38;22.00;99.90
2663;DHT22;49701;48.072;7.800;2022-07-06T07:28:06;22.10;99.90
2663;DHT22;49701;48.072;7.800;2022-07-06T07:30:32;22.20;99.90
2663;DHT22;49701;48.072;7.800;2022-07-06T07:32:57;22.40;99.90
2663;DHT22;49701;48.072;7.800;2022-07-06T07:35:25;22.50;99.90
2663;DHT22;49701;48.072;7.800;2022-07-06T07:37:51;22.60;99.90
2663;DHT22;49701;48.072;7.800;2022-07-06T07:40:16;22.60;99.90
2663;DHT22;49701;48.072;7.800;2022-07-06T07:42:42;22.60;99.90
2663;DHT22;49701;48.072;7.800;2022-07-06T07:45:08;22.70;99.90
2663;DHT22;49701;48.072;7.800;2022-07-06T07:47:34;22.70;99.90
2663;DHT22;49701;48.072;7.800;2022-07-06T07:49:59;22.80;99.90
2663;DHT22;49701;48.072;7.800;2022-07-06T07:52:25;22.90;99.90
2663;DHT22;49701;48.072;7.800;2022-07-06T07:54:50;23.00;99.90
2663;DHT22;49701;48.072;7.800;2022-07-06T07:57:16;23.20;99.90
2663;DHT22;49701;48.072;7.800;2022-07-06T07:59:41;23.30;99.90
2663;DHT22;49701;48.072;7.800;2022-07-06T08:02:07;23.50;99.90
2663;DHT22;49701;48.072;7.800;2022-07-06T08:04:33;23.60;99.90
2663;DHT22;49701;48.072;7.800;2022-07-06T08:06:58;23.80;99.90
2663;DHT22;49701;48.072;7.800;2022-07-06T08:09:24;23.90;99.90
2663;DHT22;49701;48.072;7.800;2022-07-06T08:11:49;24.00;99.90
2663;DHT22;49701;48.072;7.800;2022-07-06T08:14:15;24.10;99.90
2663;DHT22;49701;48.072;7.800;2022-07-06T08:16:42;24.30;99.90
2663;DHT22;49701;48.072;7.800;2022-07-06T08:19:07;24.50;99.90
2663;DHT22;49701;48.072;7.800;2022-07-06T08:21:33;24.60;99.90
2663;DHT22;49701;48.072;7.800;2022-07-06T08:23:59;24.80;99.50
2663;DHT22;49701;48.072;7.800;2022-07-06T08:26:26;25.00;99.20
2663;DHT22;49701;48.072;7.800;2022-07-06T08:28:51;25.00;99.00
2663;DHT22;49701;48.072;7.800;2022-07-06T08:31:17;25.10;99.00
2663;DHT22;49701;48.072;7.800;2022-07-06T08:33:42;25.20;98.80
2663;DHT22;49701;48.072;7.800;2022-07-06T08:36:08;25.30;98.30
2663;DHT22;49701;48.072;7.800;2022-07-06T08:38:33;25.40;98.20
2663;DHT22;49701;48.072;7.800;2022-07-06T08:40:59;25.50;97.80
2663;DHT22;49701;48.072;7.800;2022-07-06T08:43:24;25.60;97.50
2663;DHT22;49701;48.072;7.800;2022-07-06T08:45:50;25.70;97.20
2663;DHT22;49701;48.072;7.800;2022-07-06T08:48:18;25.90;97.00
2663;DHT22;49701;48.072;7.800;2022-07-06T08:50:44;26.20;96.60
2663;DHT22;49701;48.072;7.800;2022-07-06T08:53:10;26.40;96.10
2663;DHT22;49701;48.072;7.800;2022-07-06T08:55:36;26.60;95.80
2663;DHT22;49701;48.072;7.800;2022-07-06T08:58:01;26.80;95.50
2663;DHT22;49701;48.072;7.800;2022-07-06T09:00:27;26.90;94.70
2663;DHT22;49701;48.072;7.800;2022-07-06T09:02:53;27.00;94.70
2663;DHT22;49701;48.072;7.800;2022-07-06T09:05:23;27.10;94.40
2663;DHT22;49701;48.072;7.800;2022-07-06T09:07:50;27.40;93.80
2663;DHT22;49701;48.072;7.800;2022-07-06T09:10:21;27.60;93.40
2663;DHT22;49701;48.072;7.800;2022-07-06T09:12:50;27.80;92.90
2663;DHT22;49701;48.072;7.800;2022-07-06T09:15:16;27.90;92.50
2663;DHT22;49701;48.072;7.800;2022-07-06T09:17:42;28.10;92.10
2663;DHT22;49701;48.072;7.800;2022-07-06T09:20:13;28.30;91.70
2663;DHT22;49701;48.072;7.800;2022-07-06T09:22:39;28.40;91.30
2663;DHT22;49701;48.072;7.800;2022-07-06T09:25:15;28.50;91.20
2663;DHT22;49701;48.072;7.800;2022-07-06T09:27:45;28.60;91.10
2663;DHT22;49701;48.072;7.800;2022-07-06T09:30:14;28.70;90.70
2663;DHT22;49701;48.072;7.800;2022-07-06T09:32:44;28.70;90.40
2663;DHT22;49701;48.072;7.800;2022-07-06T09:38:13;28.90;88.80
2663;DHT22;49701;48.072;7.800;2022-07-06T09:40:44;29.00;87.80
2663;DHT22;49701;48.072;7.800;2022-07-06T09:45:41;29.30;84.30
2663;DHT22;49701;48.072;7.800;2022-07-06T09:48:09;29.30;84.50
2663;DHT22;49701;48.072;7.800;2022-07-06T09:50:39;29.40;84.00
2663;DHT22;49701;48.072;7.800;2022-07-06T09:53:05;29.50;83.40
2663;DHT22;49701;48.072;7.800;2022-07-06T09:55:31;29.70;82.50
2663;DHT22;49701;48.072;7.800;2022-07-06T09:57:57;29.80;81.30
2663;DHT22;49701;48.072;7.800;2022-07-06T10:00:22;29.80;81.10
2663;DHT22;49701;48.072;7.800;2022-07-06T10:02:49;29.80;81.50
2663;DHT22;49701;48.072;7.800;2022-07-06T10:05:18;29.90;81.00
2663;DHT22;49701;48.072;7.800;2022-07-06T10:07:49;30.00;80.50
2663;DHT22;49701;48.072;7.800;2022-07-06T10:10:15;30.00;79.90
2663;DHT22;49701;48.072;7.800;2022-07-06T10:12:44;30.20;79.40
2663;DHT22;49701;48.072;7.800;2022-07-06T10:15:10;30.30;79.40
2663;DHT22;49701;48.072;7.800;2022-07-06T10:17:38;30.40;78.60
2663;DHT22;49701;48.072;7.800;2022-07-06T10:20:05;30.50;77.90
2663;DHT22;49701;48.072;7.800;2022-07-06T10:22:31;30.70;76.80
2663;DHT22;49701;48.072;7.800;2022-07-06T10:24:57;30.80;76.60
2663;DHT22;49701;48.072;7.800;2022-07-06T10:27:24;30.80;76.20
2663;DHT22;49701;48.072;7.800;2022-07-06T10:29:50;30.90;75.60
2663;DHT22;49701;48.072;7.800;2022-07-06T10:32:19;30.80;74.50
2663;DHT22;49701;48.072;7.800;2022-07-06T10:34:46;30.80;74.50
2663;DHT22;49701;48.072;7.800;2022-07-06T10:37:25;30.90;74.00
2663;DHT22;49701;48.072;7.800;2022-07-06T10:39:51;31.00;72.60
2663;DHT22;49701;48.072;7.800;2022-07-06T10:42:43;31.10;71.20
2663;DHT22;49701;48.072;7.800;2022-07-06T10:45:11;31.20;70.70
2663;DHT22;49701;48.072;7.800;2022-07-06T10:47:37;31.30;70.40
2663;DHT22;49701;48.072;7.800;2022-07-06T10:50:03;31.40;70.20
2663;DHT22;49701;48.072;7.800;2022-07-06T10:55:47;31.60;68.40
2663;DHT22;49701;48.072;7.800;2022-07-06T10:58:15;31.80;68.70
2663;DHT22;49701;48.072;7.800;2022-07-06T11:00:59;31.90;68.30
2663;DHT22;49701;48.072;7.800;2022-07-06T11:06:05;32.10;66.90
2663;DHT22;49701;48.072;7.800;2022-07-06T11:08:57;32.10;66.20
2663;DHT22;49701;48.072;7.800;2022-07-06T11:11:38;32.20;65.10
2663;DHT22;49701;48.072;7.800;2022-07-06T11:14:17;32.50;63.60
2663;DHT22;49701;48.072;7.800;2022-07-06T11:19:16;32.80;62.80
2663;DHT22;49701;48.072;7.800;2022-07-06T11:21:46;32.70;64.60
2663;DHT22;49701;48.072;7.800;2022-07-06T11:24:17;32.70;64.30
2663;DHT22;49701;48.072;7.800;2022-07-06T11:26:44;32.90;63.70
2663;DHT22;49701;48.072;7.800;2022-07-06T11:29:13;33.10;62.30
2663;DHT22;49701;48.072;7.800;2022-07-06T11:31:45;33.30;61.90
2663;DHT22;49701;48.072;7.800;2022-07-06T11:34:17;33.40;60.80
2663;DHT22;49701;48.072;7.800;2022-07-06T11:36:43;33.50;59.90
2663;DHT22;49701;48.072;7.800;2022-07-06T11:39:08;33.60;59.50
2663;DHT22;49701;48.072;7.800;2022-07-06T11:41:34;33.60;59.40
2663;DHT22;49701;48.072;7.800;2022-07-06T11:44:00;33.50;59.90
2663;DHT22;49701;48.072;7.800;2022-07-06T11:46:35;33.50;59.90
2663;DHT22;49701;48.072;7.800;2022-07-06T11:49:06;33.60;60.10
2663;DHT22;49701;48.072;7.800;2022-07-06T11:51:34;33.70;59.70
2663;DHT22;49701;48.072;7.800;2022-07-06T11:54:07;33.80;59.10
2663;DHT22;49701;48.072;7.800;2022-07-06T11:56:34;33.80;58.90
2663;DHT22;49701;48.072;7.800;2022-07-06T11:59:00;33.80;58.90
2663;DHT22;49701;48.072;7.800;2022-07-06T12:01:27;33.90;58.80
2663;DHT22;49701;48.072;7.800;2022-07-06T12:04:01;34.20;59.20
2663;DHT22;49701;48.072;7.800;2022-07-06T12:06:29;34.30;57.90
2663;DHT22;49701;48.072;7.800;2022-07-06T12:08:57;34.40;58.00
2663;DHT22;49701;48.072;7.800;2022-07-06T12:11:28;34.30;57.80
2663;DHT22;49701;48.072;7.800;2022-07-06T12:13:56;34.20;58.60
2663;DHT22;49701;48.072;7.800;2022-07-06T12:16:29;34.00;58.70
2663;DHT22;49701;48.072;7.800;2022-07-06T12:18:55;34.00;58.70
2663;DHT22;49701;48.072;7.800;2022-07-06T12:21:20;33.90;58.60
2663;DHT22;49701;48.072;7.800;2022-07-06T12:23:51;33.80;57.70
2663;DHT22;49701;48.072;7.800;2022-07-06T12:26:22;33.70;58.30
2663;DHT22;49701;48.072;7.800;2022-07-06T12:29:23;33.70;58.80
2663;DHT22;49701;48.072;7.800;2022-07-06T12:34:17;33.60;58.90
2663;DHT22;49701;48.072;7.800;2022-07-06T12:39:17;33.60;59.00
2663;DHT22;49701;48.072;7.800;2022-07-06T12:41:52;33.50;59.00
2663;DHT22;49701;48.072;7.800;2022-07-06T12:44:20;33.40;59.60
2663;DHT22;49701;48.072;7.800;2022-07-06T12:46:48;33.40;59.40
2663;DHT22;49701;48.072;7.800;2022-07-06T12:49:17;33.50;59.40
2663;DHT22;49701;48.072;7.800;2022-07-06T12:51:56;33.70;58.20
2663;DHT22;49701;48.072;7.800;2022-07-06T12:54:24;33.90;58.60
2663;DHT22;49701;48.072;7.800;2022-07-06T12:57:07;34.00;58.30
2663;DHT22;49701;48.072;7.800;2022-07-06T12:59:45;34.20;58.20
2663;DHT22;49701;48.072;7.800;2022-07-06T13:02:21;34.30;57.30
2663;DHT22;49701;48.072;7.800;2022-07-06T13:05:01;34.40;57.40
2663;DHT22;49701;48.072;7.800;2022-07-06T13:07:29;34.50;57.20
2663;DHT22;49701;48.072;7.800;2022-07-06T13:09:57;34.40;57.20
2663;DHT22;49701;48.072;7.800;2022-07-06T13:12:23;34.50;57.10
2663;DHT22;49701;48.072;7.800;2022-07-06T13:14:50;34.50;56.80
2663;DHT22;49701;48.072;7.800;2022-07-06T13:17:16;34.50;57.20
2663;DHT22;49701;48.072;7.800;2022-07-06T13:19:42;34.30;56.80
2663;DHT22;49701;48.072;7.800;2022-07-06T13:22:08;34.00;57.30
2663;DHT22;49701;48.072;7.800;2022-07-06T13:24:34;34.00;57.60
2663;DHT22;49701;48.072;7.800;2022-07-06T13:27:01;34.20;57.20
2663;DHT22;49701;48.072;7.800;2022-07-06T13:29:26;34.30;56.90
2663;DHT22;49701;48.072;7.800;2022-07-06T13:31:52;34.20;57.20
2663;DHT22;49701;48.072;7.800;2022-07-06T13:34:18;34.10;57.20
2663;DHT22;49701;48.072;7.800;2022-07-06T13:36:43;34.00;57.20
2663;DHT22;49701;48.072;7.800;2022-07-06T13:39:11;34.00;56.90
2663;DHT22;49701;48.072;7.800;2022-07-06T13:41:36;33.80;57.00
2663;DHT22;49701;48.072;7.800;2022-07-06T13:44:03;33.70;57.60
2663;DHT22;49701;48.072;7.800;2022-07-06T13:46:30;33.60;57.70
2663;DHT22;49701;48.072;7.800;2022-07-06T13:48:56;33.40;57.80
2663;DHT22;49701;48.072;7.800;2022-07-06T13:51:23;33.20;57.70
2663;DHT22;49701;48.072;7.800;2022-07-06T13:53:50;33.10;58.40
2663;DHT22;49701;48.072;7.800;2022-07-06T13:56:16;32.80;59.20
2663;DHT22;49701;48.072;7.800;2022-07-06T13:58:41;32.80;59.00
2663;DHT22;49701;48.072;7.800;2022-07-06T14:01:07;32.60;58.90
2663;DHT22;49701;48.072;7.800;2022-07-06T14:03:33;32.60;58.60
2663;DHT22;49701;48.072;7.800;2022-07-06T14:06:00;32.60;59.00
2663;DHT22;49701;48.072;7.800;2022-07-06T14:08:26;32.60;58.60
2663;DHT22;49701;48.072;7.800;2022-07-06T14:10:52;32.70;58.80
2663;DHT22;49701;48.072;7.800;2022-07-06T14:13:19;32.60;58.90
2663;DHT22;49701;48.072;7.800;2022-07-06T14:15:44;32.50;58.80
2663;DHT22;49701;48.072;7.800;2022-07-06T14:18:10;32.40;59.60
2663;DHT22;49701;48.072;7.800;2022-07-06T14:20:36;32.40;58.90
2663;DHT22;49701;48.072;7.800;2022-07-06T14:23:02;32.30;59.10
2663;DHT22;49701;48.072;7.800;2022-07-06T14:25:27;32.20;59.20
2663;DHT22;49701;48.072;7.800;2022-07-06T14:27:53;32.20;59.30
2663;DHT22;49701;48.072;7.800;2022-07-06T14:30:19;32.20;59.40
2663;DHT22;49701;48.072;7.800;2022-07-06T14:32:44;32.30;59.50
2663;DHT22;49701;48.072;7.800;2022-07-06T14:35:11;32.20;58.80
2663;DHT22;49701;48.072;7.800;2022-07-06T14:37:36;32.20;59.00
2663;DHT22;49701;48.072;7.800;2022-07-06T14:40:04;32.00;58.60
2663;DHT22;49701;48.072;7.800;2022-07-06T14:42:29;32.00;58.90
2663;DHT22;49701;48.072;7.800;2022-07-06T14:44:55;31.80;59.70
2663;DHT22;49701;48.072;7.800;2022-07-06T14:47:21;31.80;59.50
2663;DHT22;49701;48.072;7.800;2022-07-06T14:49:47;31.70;59.70
2663;DHT22;49701;48.072;7.800;2022-07-06T14:52:12;31.50;59.70
2663;DHT22;49701;48.072;7.800;2022-07-06T14:54:38;31.40;60.60
2663;DHT22;49701;48.072;7.800;2022-07-06T14:57:04;31.30;61.10
2663;DHT22;49701;48.072;7.800;2022-07-06T14:59:30;31.20;60.20
2663;DHT22;49701;48.072;7.800;2022-07-06T15:01:56;31.00;60.80
2663;DHT22;49701;48.072;7.800;2022-07-06T15:04:22;30.80;61.70
2663;DHT22;49701;48.072;7.800;2022-07-06T15:06:48;30.90;61.40
2663;DHT22;49701;48.072;7.800;2022-07-06T15:09:14;30.80;60.80
2663;DHT22;49701;48.072;7.800;2022-07-06T15:11:39;30.90;61.00
2663;DHT22;49701;48.072;7.800;2022-07-06T15:14:05;30.90;60.70
2663;DHT22;49701;48.072;7.800;2022-07-06T15:16:31;30.90;60.90
2663;DHT22;49701;48.072;7.800;2022-07-06T15:18:56;30.80;61.50
2663;DHT22;49701;48.072;7.800;2022-07-06T15:21:22;30.60;61.70
2663;DHT22;49701;48.072;7.800;2022-07-06T15:23:47;30.40;61.70
2663;DHT22;49701;48.072;7.800;2022-07-06T15:26:13;30.10;62.30
2663;DHT22;49701;48.072;7.800;2022-07-06T15:28:38;29.80;62.60
2663;DHT22;49701;48.072;7.800;2022-07-06T15:31:04;29.70;62.70
2663;DHT22;49701;48.072;7.800;2022-07-06T15:33:30;29.40;62.90
2663;DHT22;49701;48.072;7.800;2022-07-06T15:35:56;29.10;62.90
2663;DHT22;49701;48.072;7.800;2022-07-06T15:38:22;28.90;63.40
2663;DHT22;49701;48.072;7.800;2022-07-06T15:40:47;28.70;64.00
2663;DHT22;49701;48.072;7.800;2022-07-06T15:43:17;28.60;63.20
2663;DHT22;49701;48.072;7.800;2022-07-06T15:45:43;28.50;62.70
2663;DHT22;49701;48.072;7.800;2022-07-06T15:48:08;28.30;63.00
2663;DHT22;49701;48.072;7.800;2022-07-06T15:50:34;28.10;63.60
2663;DHT22;49701;48.072;7.800;2022-07-06T15:53:00;28.00;64.40
2663;DHT22;49701;48.072;7.800;2022-07-06T15:55:26;27.80;64.20
2663;DHT22;49701;48.072;7.800;2022-07-06T15:57:51;27.70;63.80
2663;DHT22;49701;48.072;7.800;2022-07-06T16:00:17;27.70;63.80
2663;DHT22;49701;48.072;7.800;2022-07-06T16:02:43;27.60;62.80